sensor_id;sensor_type;location;lat;lon;timestamp;pressure;altitude;pressure_sealevel;temperature;humidity
69173;BME280;56280;49.662;8.408;2023-08-30T00:00:39;100038.53;;;17.58;76.76
69173;BME280;56280;49.662;8.408;2023-08-30T00:03:05;100035.94;;;17.65;76.71
69173;BME280;56280;49.662;8.408;2023-08-30T00:05:31;100028.31;;;17.54;76.82
69173;BME280;56280;49.662;8.408;2023-08-30T00:07:56;100032.28;;;17.58;76.74
69173;BME280;56280;49.662;8.408;2023-08-30T00:10:22;100028.59;;;17.59;76.72
69173;BME280;56280;49.662;8.408;2023-08-30T00:12:47;100046.50;;;17.66;76.39
69173;BME280;56280;49.662;8.408;2023-08-30T00:15:13;100035.94;;;17.65;75.98
69173;BME280;56280;49.662;8.408;2023-08-30T00:17:39;100016.06;;;17.51;75.94
69173;BME280;56280;49.662;8.408;2023-08-30T00:20:05;100030.75;;;17.63;76.28
69173;BME280;56280;49.662;8.408;2023-08-30T00:22:31;100035.47;;;17.61;76.41
69173;BME280;56280;49.662;8.408;2023-08-30T00:24:57;99972.25;;;17.12;76.27
69173;BME280;56280;49.662;8.408;2023-08-30T00:27:22;100028.78;;;17.57;76.50
69173;BME280;56280;49.662;8.408;2023-08-30T00:29:47;100028.78;;;17.57;76.57
69173;BME280;56280;49.662;8.408;2023-08-30T00:32:13;100019.59;;;17.52;76.64
69173;BME280;56280;49.662;8.408;2023-08-30T00:34:38;100017.09;;;17.50;76.69
69173;BME280;56280;49.662;8.408;2023-08-30T00:37:03;99982.28;;;17.19;76.91
69173;BME280;56280;49.662;8.408;2023-08-30T00:39:29;100017.81;;;17.44;76.93
69173;BME280;56280;49.662;8.408;2023-08-30T00:41:54;100018.91;;;17.35;77.17
69173;BME280;56280;49.662;8.408;2023-08-30T00:44:19;100016.69;;;17.38;76.94
69173;BME280;56280;49.662;8.408;2023-08-30T00:46:45;99969.75;;;17.11;77.43
69173;BME280;56280;49.662;8.408;2023-08-30T00:49:10;100027.00;;;17.49;77.19
69173;BME280;56280;49.662;8.408;2023-08-30T00:51:36;100021.97;;;17.46;77.13
69173;BME280;56280;49.662;8.408;2023-08-30T00:54:02;100017.66;;;17.45;77.46
69173;BME280;56280;49.662;8.408;2023-08-30T00:56:27;100016.16;;;17.43;77.42
69173;BME280;56280;49.662;8.408;2023-08-30T00:58:53;100016.78;;;17.45;77.34
69173;BME280;56280;49.662;8.408;2023-08-30T01:01:19;100019.78;;;17.50;77.48
69173;BME280;56280;49.662;8.408;2023-08-30T01:03:45;99955.22;;;17.05;77.71
69173;BME280;56280;49.662;8.408;2023-08-30T01:06:10;100018.94;;;17.49;77.60
69173;BME280;56280;49.662;8.408;2023-08-30T01:08:36;100011.91;;;17.48;77.29
69173;BME280;56280;49.662;8.408;2023-08-30T01:11:30;100028.03;;;17.48;78.19
69173;BME280;56280;49.662;8.408;2023-08-30T01:14:01;100005.41;;;17.43;78.12
69173;BME280;56280;49.662;8.408;2023-08-30T01:16:28;100004.56;;;17.42;78.11
69173;BME280;56280;49.662;8.408;2023-08-30T01:18:56;100008.38;;;17.48;77.92
69173;BME280;56280;49.662;8.408;2023-08-30T01:22:05;100005.50;;;17.49;77.78
69173;BME280;56280;49.662;8.408;2023-08-30T01:27:20;99997.63;;;17.48;77.71
69173;BME280;56280;49.662;8.408;2023-08-30T01:29:46;99971.75;;;17.32;77.82
69173;BME280;56280;49.662;8.408;2023-08-30T01:32:12;99990.47;;;17.40;77.79
69173;BME280;56280;49.662;8.408;2023-08-30T01:34:39;99967.88;;;17.35;77.74
69173;BME280;56280;49.662;8.408;2023-08-30T01:37:06;99963.97;;;17.22;77.82
69173;BME280;56280;49.662;8.408;2023-08-30T01:39:32;99978.28;;;17.38;77.62
69173;BME280;56280;49.662;8.408;2023-08-30T01:41:59;99907.00;;;16.97;77.79
69173;BME280;56280;49.662;8.408;2023-08-30T01:44:27;99967.13;;;17.26;78.13
69173;BME280;56280;49.662;8.408;2023-08-30T01:46:55;99979.16;;;17.30;78.90
69173;BME280;56280;49.662;8.408;2023-08-30T01:49:21;99974.88;;;17.21;79.33
69173;BME280;56280;49.662;8.408;2023-08-30T01:51:47;99956.88;;;17.06;79.36
69173;BME280;56280;49.662;8.408;2023-08-30T01:54:17;99989.78;;;17.23;79.04
69173;BME280;56280;49.662;8.408;2023-08-30T01:56:43;99969.88;;;17.18;79.22
69173;BME280;56280;49.662;8.408;2023-08-30T01:59:08;99970.44;;;17.13;78.97
69173;BME280;56280;49.662;8.408;2023-08-30T02:01:34;99988.97;;;17.23;79.16
69173;BME280;56280;49.662;8.408;2023-08-30T02:03:59;99967.75;;;17.13;79.25
69173;BME280;56280;49.662;8.408;2023-08-30T02:06:32;99977.88;;;17.26;79.21
69173;BME280;56280;49.662;8.408;2023-08-30T02:09:24;99909.38;;;16.84;79.13
69173;BME280;56280;49.662;8.408;2023-08-30T02:11:52;99974.34;;;17.25;79.24
69173;BME280;56280;49.662;8.408;2023-08-30T02:14:20;99969.50;;;17.21;79.13
69173;BME280;56280;49.662;8.408;2023-08-30T02:16:46;99974.44;;;17.32;79.30
69173;BME280;56280;49.662;8.408;2023-08-30T02:19:12;99935.56;;;17.05;79.19
69173;BME280;56280;49.662;8.408;2023-08-30T02:21:41;99965.09;;;17.28;79.54
69173;BME280;56280;49.662;8.408;2023-08-30T02:24:07;99964.06;;;17.29;79.24
69173;BME280;56280;49.662;8.408;2023-08-30T02:26:33;99933.41;;;17.08;78.90
69173;BME280;56280;49.662;8.408;2023-08-30T02:28:59;99961.94;;;17.24;78.54
69173;BME280;56280;49.662;8.408;2023-08-30T02:31:24;99979.44;;;17.35;78.91
69173;BME280;56280;49.662;8.408;2023-08-30T02:33:49;99965.56;;;17.31;78.89
69173;BME280;56280;49.662;8.408;2023-08-30T02:36:14;99977.06;;;17.40;78.58
69173;BME280;56280;49.662;8.408;2023-08-30T02:38:40;99978.09;;;17.39;78.23
69173;BME280;56280;49.662;8.408;2023-08-30T02:41:05;99953.22;;;17.22;78.39
69173;BME280;56280;49.662;8.408;2023-08-30T02:43:30;99976.03;;;17.41;78.38
69173;BME280;56280;49.662;8.408;2023-08-30T02:45:56;99936.19;;;17.15;78.11
69173;BME280;56280;49.662;8.408;2023-08-30T02:48:21;99907.34;;;16.94;78.15
69173;BME280;56280;49.662;8.408;2023-08-30T02:50:46;99951.38;;;17.23;78.22
69173;BME280;56280;49.662;8.408;2023-08-30T02:53:12;99977.06;;;17.40;78.23
69173;BME280;56280;49.662;8.408;2023-08-30T02:55:37;99978.09;;;17.39;78.63
69173;BME280;56280;49.662;8.408;2023-08-30T02:58:02;99960.91;;;17.25;78.33
69173;BME280;56280;49.662;8.408;2023-08-30T03:00:28;99978.63;;;17.35;78.81
69173;BME280;56280;49.662;8.408;2023-08-30T03:02:56;99969.16;;;17.24;78.73
69173;BME280;56280;49.662;8.408;2023-08-30T03:05:21;99955.44;;;17.19;78.84
69173;BME280;56280;49.662;8.408;2023-08-30T03:07:46;99969.75;;;17.34;78.88
69173;BME280;56280;49.662;8.408;2023-08-30T03:10:12;99960.28;;;17.23;79.10
69173;BME280;56280;49.662;8.408;2023-08-30T03:12:37;99979.28;;;17.37;79.17
69173;BME280;56280;49.662;8.408;2023-08-30T03:15:03;99980.31;;;17.36;78.85
69173;BME280;56280;49.662;8.408;2023-08-30T03:17:29;99962.66;;;17.18;78.92
69173;BME280;56280;49.662;8.408;2023-08-30T03:19:54;99984.19;;;17.33;79.16
69173;BME280;56280;49.662;8.408;2023-08-30T03:22:20;99949.31;;;17.10;79.08
69173;BME280;56280;49.662;8.408;2023-08-30T03:24:45;99985.94;;;17.26;79.63
69173;BME280;56280;49.662;8.408;2023-08-30T03:27:10;99972.00;;;17.22;79.78
69173;BME280;56280;49.662;8.408;2023-08-30T03:29:35;99981.75;;;17.23;79.68
69173;BME280;56280;49.662;8.408;2023-08-30T03:32:01;99935.53;;;16.90;79.62
69173;BME280;56280;49.662;8.408;2023-08-30T03:34:26;99960.69;;;17.12;79.73
69173;BME280;56280;49.662;8.408;2023-08-30T03:36:51;99967.94;;;17.11;80.13
69173;BME280;56280;49.662;8.408;2023-08-30T03:39:20;99962.56;;;17.11;80.64
69173;BME280;56280;49.662;8.408;2023-08-30T03:41:46;99978.09;;;17.16;80.04
69173;BME280;56280;49.662;8.408;2023-08-30T03:44:11;99902.47;;;16.66;79.68
69173;BME280;56280;49.662;8.408;2023-08-30T03:46:36;99968.47;;;17.07;80.46
69173;BME280;56280;49.662;8.408;2023-08-30T03:49:02;99990.16;;;17.20;80.49
69173;BME280;56280;49.662;8.408;2023-08-30T03:51:28;99972.16;;;17.06;80.04
69173;BME280;56280;49.662;8.408;2023-08-30T03:53:54;99976.25;;;17.17;80.27
69173;BME280;56280;49.662;8.408;2023-08-30T03:56:21;99962.81;;;17.02;80.00
69173;BME280;56280;49.662;8.408;2023-08-30T03:58:46;99968.81;;;17.04;80.39
69173;BME280;56280;49.662;8.408;2023-08-30T04:01:12;99958.44;;;17.01;80.45
69173;BME280;56280;49.662;8.408;2023-08-30T04:03:37;99977.34;;;17.07;80.86
69173;BME280;56280;49.662;8.408;2023-08-30T04:06:02;99955.47;;;16.95;80.52
69173;BME280;56280;49.662;8.408;2023-08-30T04:08:27;99954.66;;;16.87;80.89
69173;BME280;56280;49.662;8.408;2023-08-30T04:10:53;99980.72;;;17.01;80.73
69173;BME280;56280;49.662;8.408;2023-08-30T04:13:18;99977.88;;;17.03;80.78
69173;BME280;56280;49.662;8.408;2023-08-30T04:15:44;99981.88;;;17.07;80.89
69173;BME280;56280;49.662;8.408;2023-08-30T04:18:09;99985.75;;;17.04;80.92
69173;BME280;56280;49.662;8.408;2023-08-30T04:20:34;99945.47;;;16.81;80.65
69173;BME280;56280;49.662;8.408;2023-08-30T04:23:00;99972.69;;;17.01;80.98
69173;BME280;56280;49.662;8.408;2023-08-30T04:25:33;99971.03;;;17.00;81.01
69173;BME280;56280;49.662;8.408;2023-08-30T04:27:59;99925.91;;;16.72;80.43
69173;BME280;56280;49.662;8.408;2023-08-30T04:30:24;99967.84;;;16.97;81.04
69173;BME280;56280;49.662;8.408;2023-08-30T04:32:50;99968.09;;;16.87;80.87
69173;BME280;56280;49.662;8.408;2023-08-30T04:35:15;99931.03;;;16.59;81.75
69173;BME280;56280;49.662;8.408;2023-08-30T04:37:40;99943.03;;;16.71;81.16
69173;BME280;56280;49.662;8.408;2023-08-30T04:40:08;99958.75;;;16.74;81.95
69173;BME280;56280;49.662;8.408;2023-08-30T04:42:37;99931.66;;;16.61;81.93
69173;BME280;56280;49.662;8.408;2023-08-30T04:45:04;99946.72;;;16.70;81.59
69173;BME280;56280;49.662;8.408;2023-08-30T04:47:30;99921.66;;;16.55;81.57
69173;BME280;56280;49.662;8.408;2023-08-30T04:49:56;99966.75;;;16.83;81.91
69173;BME280;56280;49.662;8.408;2023-08-30T04:52:21;99906.34;;;16.40;82.38
69173;BME280;56280;49.662;8.408;2023-08-30T04:54:46;99932.88;;;16.58;82.67
69173;BME280;56280;49.662;8.408;2023-08-30T04:57:13;99929.16;;;16.59;82.48
69173;BME280;56280;49.662;8.408;2023-08-30T04:59:40;99962.38;;;16.82;82.89
69173;BME280;56280;49.662;8.408;2023-08-30T05:02:06;99951.84;;;16.80;82.14
69173;BME280;56280;49.662;8.408;2023-08-30T05:04:31;99960.03;;;16.87;82.63
69173;BME280;56280;49.662;8.408;2023-08-30T05:06:56;99936.75;;;16.79;82.49
69173;BME280;56280;49.662;8.408;2023-08-30T05:09:22;99935.28;;;16.76;82.13
69173;BME280;56280;49.662;8.408;2023-08-30T05:11:50;99949.41;;;16.93;81.76
69173;BME280;56280;49.662;8.408;2023-08-30T05:14:15;99956.75;;;17.00;81.69
69173;BME280;56280;49.662;8.408;2023-08-30T05:16:41;99950.03;;;17.04;81.76
69173;BME280;56280;49.662;8.408;2023-08-30T05:19:06;99972.63;;;17.09;81.88
69173;BME280;56280;49.662;8.408;2023-08-30T05:21:31;99949.84;;;17.05;81.64
69173;BME280;56280;49.662;8.408;2023-08-30T05:23:56;99961.53;;;17.12;81.86
69173;BME280;56280;49.662;8.408;2023-08-30T05:26:22;99955.31;;;17.12;81.65
69173;BME280;56280;49.662;8.408;2023-08-30T05:28:47;99966.88;;;17.12;81.60
69173;BME280;56280;49.662;8.408;2023-08-30T05:31:12;99946.88;;;17.00;82.02
69173;BME280;56280;49.662;8.408;2023-08-30T05:33:37;99952.00;;;17.10;82.37
69173;BME280;56280;49.662;8.408;2023-08-30T05:36:03;99940.66;;;17.00;82.21
69173;BME280;56280;49.662;8.408;2023-08-30T05:38:28;99961.69;;;17.11;82.27
69173;BME280;56280;49.662;8.408;2023-08-30T05:40:53;99963.03;;;17.15;81.86
69173;BME280;56280;49.662;8.408;2023-08-30T05:43:19;99973.50;;;17.25;81.96
69173;BME280;56280;49.662;8.408;2023-08-30T05:45:44;99969.44;;;17.29;82.13
69173;BME280;56280;49.662;8.408;2023-08-30T05:48:09;99964.38;;;17.34;81.77
69173;BME280;56280;49.662;8.408;2023-08-30T05:50:35;99942.03;;;17.19;81.50
69173;BME280;56280;49.662;8.408;2023-08-30T05:53:00;99956.59;;;17.39;81.09
69173;BME280;56280;49.662;8.408;2023-08-30T05:55:26;99950.03;;;17.42;81.41
69173;BME280;56280;49.662;8.408;2023-08-30T05:57:51;99969.22;;;17.54;81.27
69173;BME280;56280;49.662;8.408;2023-08-30T06:00:17;99917.78;;;17.27;81.35
69173;BME280;56280;49.662;8.408;2023-08-30T06:02:43;99909.19;;;17.31;81.04
69173;BME280;56280;49.662;8.408;2023-08-30T06:05:08;99926.00;;;17.48;80.59
69173;BME280;56280;49.662;8.408;2023-08-30T06:07:34;99955.28;;;17.73;80.62
69173;BME280;56280;49.662;8.408;2023-08-30T06:10:00;99966.50;;;17.92;80.47
69173;BME280;56280;49.662;8.408;2023-08-30T06:12:25;99940.25;;;17.79;80.20
69173;BME280;56280;49.662;8.408;2023-08-30T06:14:51;99910.97;;;17.69;80.16
69173;BME280;56280;49.662;8.408;2023-08-30T06:17:18;99974.50;;;18.15;80.22
69173;BME280;56280;49.662;8.408;2023-08-30T06:19:44;99941.22;;;18.01;79.79
69173;BME280;56280;49.662;8.408;2023-08-30T06:22:10;99911.66;;;18.01;79.50
69173;BME280;56280;49.662;8.408;2023-08-30T06:24:35;99972.31;;;18.55;79.27
69173;BME280;56280;49.662;8.408;2023-08-30T06:27:01;99979.31;;;18.71;78.72
69173;BME280;56280;49.662;8.408;2023-08-30T06:29:26;99953.41;;;18.70;78.05
69173;BME280;56280;49.662;8.408;2023-08-30T06:31:52;99968.34;;;18.87;77.80
69173;BME280;56280;49.662;8.408;2023-08-30T06:34:17;99970.38;;;19.07;76.95
69173;BME280;56280;49.662;8.408;2023-08-30T06:36:43;99969.50;;;19.21;76.60
69173;BME280;56280;49.662;8.408;2023-08-30T06:39:08;99941.47;;;19.16;76.08
69173;BME280;56280;49.662;8.408;2023-08-30T06:41:33;99947.41;;;19.33;75.89
69173;BME280;56280;49.662;8.408;2023-08-30T06:43:58;99939.38;;;19.39;74.75
69173;BME280;56280;49.662;8.408;2023-08-30T06:46:24;99959.31;;;19.73;73.91
69173;BME280;56280;49.662;8.408;2023-08-30T06:48:49;99930.44;;;19.67;72.96
69173;BME280;56280;49.662;8.408;2023-08-30T06:51:14;99952.41;;;19.92;72.37
69173;BME280;56280;49.662;8.408;2023-08-30T06:53:40;99949.78;;;20.06;71.96
69173;BME280;56280;49.662;8.408;2023-08-30T06:56:05;99966.91;;;20.26;71.64
69173;BME280;56280;49.662;8.408;2023-08-30T06:58:30;99965.09;;;20.40;70.86
69173;BME280;56280;49.662;8.408;2023-08-30T07:00:59;99955.13;;;20.40;70.07
69173;BME280;56280;49.662;8.408;2023-08-30T07:03:24;99948.13;;;20.53;69.96
69173;BME280;56280;49.662;8.408;2023-08-30T07:05:52;99945.25;;;20.61;69.50
69173;BME280;56280;49.662;8.408;2023-08-30T07:08:18;99926.94;;;20.50;69.23
69173;BME280;56280;49.662;8.408;2023-08-30T07:10:44;99953.00;;;20.91;69.25
69173;BME280;56280;49.662;8.408;2023-08-30T07:13:09;99949.06;;;20.93;68.32
69173;BME280;56280;49.662;8.408;2023-08-30T07:15:41;99938.69;;;21.04;68.72
69173;BME280;56280;49.662;8.408;2023-08-30T07:18:08;99906.69;;;21.01;67.95
69173;BME280;56280;49.662;8.408;2023-08-30T07:20:33;99941.41;;;21.17;67.97
69173;BME280;56280;49.662;8.408;2023-08-30T07:23:00;99942.66;;;21.41;66.53
69173;BME280;56280;49.662;8.408;2023-08-30T07:25:25;99940.16;;;21.66;66.50
69173;BME280;56280;49.662;8.408;2023-08-30T07:27:51;99933.47;;;21.82;65.30
69173;BME280;56280;49.662;8.408;2023-08-30T07:30:16;99936.16;;;21.89;64.66
69173;BME280;56280;49.662;8.408;2023-08-30T07:32:41;99938.66;;;21.91;64.05
69173;BME280;56280;49.662;8.408;2023-08-30T07:35:07;99921.56;;;22.03;63.98
69173;BME280;56280;49.662;8.408;2023-08-30T07:37:34;99941.88;;;22.19;62.56
69173;BME280;56280;49.662;8.408;2023-08-30T07:39:59;99928.19;;;22.14;62.38
69173;BME280;56280;49.662;8.408;2023-08-30T07:42:25;99938.75;;;22.22;61.84
69173;BME280;56280;49.662;8.408;2023-08-30T07:44:50;99940.75;;;22.47;62.58
69173;BME280;56280;49.662;8.408;2023-08-30T07:47:15;99950.94;;;22.52;62.08
69173;BME280;56280;49.662;8.408;2023-08-30T07:49:41;99941.47;;;22.68;62.32
69173;BME280;56280;49.662;8.408;2023-08-30T07:52:06;99949.91;;;22.85;61.31
69173;BME280;56280;49.662;8.408;2023-08-30T07:54:36;99935.63;;;23.03;60.11
69173;BME280;56280;49.662;8.408;2023-08-30T07:57:01;99927.72;;;23.01;59.17
69173;BME280;56280;49.662;8.408;2023-08-30T07:59:27;99949.66;;;23.25;59.16
69173;BME280;56280;49.662;8.408;2023-08-30T08:01:52;99947.34;;;23.28;58.79
69173;BME280;56280;49.662;8.408;2023-08-30T08:04:18;99949.94;;;23.42;58.98
69173;BME280;56280;49.662;8.408;2023-08-30T08:06:44;99943.63;;;23.48;58.00
69173;BME280;56280;49.662;8.408;2023-08-30T08:09:09;99957.38;;;23.72;58.03
69173;BME280;56280;49.662;8.408;2023-08-30T08:11:34;99926.25;;;23.74;56.96
69173;BME280;56280;49.662;8.408;2023-08-30T08:13:59;99950.88;;;23.98;56.88
69173;BME280;56280;49.662;8.408;2023-08-30T08:16:25;99949.69;;;23.69;56.56
69173;BME280;56280;49.662;8.408;2023-08-30T08:18:50;99955.50;;;23.72;57.67
69173;BME280;56280;49.662;8.408;2023-08-30T08:21:17;99953.00;;;23.71;57.82
69173;BME280;56280;49.662;8.408;2023-08-30T08:23:42;99911.84;;;23.55;56.75
69173;BME280;56280;49.662;8.408;2023-08-30T08:26:08;99953.88;;;24.08;55.63
69173;BME280;56280;49.662;8.408;2023-08-30T08:28:33;99926.09;;;23.94;56.34
69173;BME280;56280;49.662;8.408;2023-08-30T08:31:00;99919.38;;;24.15;55.53
69173;BME280;56280;49.662;8.408;2023-08-30T08:33:25;99965.91;;;24.49;55.54
69173;BME280;56280;49.662;8.408;2023-08-30T08:35:50;99958.28;;;24.58;54.17
69173;BME280;56280;49.662;8.408;2023-08-30T08:38:15;99959.50;;;24.44;53.77
69173;BME280;56280;49.662;8.408;2023-08-30T08:40:41;99952.34;;;24.49;53.77
69173;BME280;56280;49.662;8.408;2023-08-30T08:43:06;99950.75;;;24.42;53.65
69173;BME280;56280;49.662;8.408;2023-08-30T08:45:35;99921.44;;;24.32;54.66
69173;BME280;56280;49.662;8.408;2023-08-30T08:48:04;99945.78;;;24.38;53.60
69173;BME280;56280;49.662;8.408;2023-08-30T08:50:31;99920.31;;;24.21;53.55
69173;BME280;56280;49.662;8.408;2023-08-30T08:52:59;99962.66;;;24.40;53.27
69173;BME280;56280;49.662;8.408;2023-08-30T08:55:26;99954.25;;;24.30;54.10
69173;BME280;56280;49.662;8.408;2023-08-30T08:57:56;99960.56;;;24.43;54.07
69173;BME280;56280;49.662;8.408;2023-08-30T09:00:21;99936.47;;;24.34;53.29
69173;BME280;56280;49.662;8.408;2023-08-30T09:02:46;99964.09;;;24.62;52.89
69173;BME280;56280;49.662;8.408;2023-08-30T09:05:25;99954.91;;;24.44;53.03
69173;BME280;56280;49.662;8.408;2023-08-30T09:07:54;99960.25;;;24.51;53.29
69173;BME280;56280;49.662;8.408;2023-08-30T09:10:29;99960.31;;;24.63;52.58
69173;BME280;56280;49.662;8.408;2023-08-30T09:13:12;99951.97;;;24.76;51.80
69173;BME280;56280;49.662;8.408;2023-08-30T09:15:41;99917.16;;;24.73;51.67
69173;BME280;56280;49.662;8.408;2023-08-30T09:18:19;99947.50;;;25.12;51.73
69173;BME280;56280;49.662;8.408;2023-08-30T09:20:45;99961.13;;;25.36;51.14
69173;BME280;56280;49.662;8.408;2023-08-30T09:23:20;99960.06;;;25.48;50.53
69173;BME280;56280;49.662;8.408;2023-08-30T09:25:46;99956.91;;;25.63;50.61
69173;BME280;56280;49.662;8.408;2023-08-30T09:28:17;99950.25;;;25.71;49.14
69173;BME280;56280;49.662;8.408;2023-08-30T09:30:49;99938.69;;;25.64;50.34
69173;BME280;56280;49.662;8.408;2023-08-30T09:33:30;99928.63;;;25.76;49.44
69173;BME280;56280;49.662;8.408;2023-08-30T09:35:59;99946.13;;;25.80;49.80
69173;BME280;56280;49.662;8.408;2023-08-30T09:38:25;99905.69;;;25.60;49.86
69173;BME280;56280;49.662;8.408;2023-08-30T09:40:51;99934.41;;;25.80;48.86
69173;BME280;56280;49.662;8.408;2023-08-30T09:43:20;99925.56;;;25.61;49.05
69173;BME280;56280;49.662;8.408;2023-08-30T09:45:50;99906.38;;;25.20;49.77
69173;BME280;56280;49.662;8.408;2023-08-30T09:48:20;99899.16;;;25.26;49.15
69173;BME280;56280;49.662;8.408;2023-08-30T09:50:47;99890.66;;;25.10;49.99
69173;BME280;56280;49.662;8.408;2023-08-30T09:53:20;99920.50;;;25.41;50.40
69173;BME280;56280;49.662;8.408;2023-08-30T09:55:47;99916.47;;;25.32;50.35
69173;BME280;56280;49.662;8.408;2023-08-30T09:58:14;99911.22;;;25.18;49.92
69173;BME280;56280;49.662;8.408;2023-08-30T10:00:40;99918.81;;;25.28;47.92
69173;BME280;56280;49.662;8.408;2023-08-30T10:03:06;99900.91;;;24.97;48.83
69173;BME280;56280;49.662;8.408;2023-08-30T10:05:33;99903.28;;;25.05;48.38
69173;BME280;56280;49.662;8.408;2023-08-30T10:07:59;99877.28;;;24.97;47.85
69173;BME280;56280;49.662;8.408;2023-08-30T10:10:25;99907.31;;;25.14;48.07
69173;BME280;56280;49.662;8.408;2023-08-30T10:12:51;99859.91;;;24.86;47.80
69173;BME280;56280;49.662;8.408;2023-08-30T10:15:16;99875.09;;;24.75;48.32
69173;BME280;56280;49.662;8.408;2023-08-30T10:17:45;99850.91;;;24.44;48.85
69173;BME280;56280;49.662;8.408;2023-08-30T10:20:11;99851.59;;;24.39;49.00
69173;BME280;56280;49.662;8.408;2023-08-30T10:22:40;99867.41;;;24.42;48.36
69173;BME280;56280;49.662;8.408;2023-08-30T10:25:11;99894.34;;;24.44;49.99
69173;BME280;56280;49.662;8.408;2023-08-30T10:27:44;99853.16;;;24.47;49.32
69173;BME280;56280;49.662;8.408;2023-08-30T10:30:11;99852.09;;;24.48;47.83
69173;BME280;56280;49.662;8.408;2023-08-30T10:32:41;99877.94;;;24.69;47.21
69173;BME280;56280;49.662;8.408;2023-08-30T10:35:14;99857.19;;;24.98;46.33
69173;BME280;56280;49.662;8.408;2023-08-30T10:37:53;99874.34;;;25.22;45.25
69173;BME280;56280;49.662;8.408;2023-08-30T10:40:18;99859.41;;;24.78;45.48
69173;BME280;56280;49.662;8.408;2023-08-30T10:42:45;99847.72;;;24.89;44.24
69173;BME280;56280;49.662;8.408;2023-08-30T10:45:10;99863.22;;;24.88;44.94
69173;BME280;56280;49.662;8.408;2023-08-30T10:47:37;99847.72;;;24.89;44.77
69173;BME280;56280;49.662;8.408;2023-08-30T10:50:10;99846.22;;;24.93;44.36
69173;BME280;56280;49.662;8.408;2023-08-30T10:52:36;99855.38;;;24.68;45.29
69173;BME280;56280;49.662;8.408;2023-08-30T10:55:12;99862.47;;;24.69;47.17
69173;BME280;56280;49.662;8.408;2023-08-30T10:57:44;99843.19;;;24.59;45.98
69173;BME280;56280;49.662;8.408;2023-08-30T11:02:49;99866.63;;;24.84;46.58
69173;BME280;56280;49.662;8.408;2023-08-30T11:05:16;99849.03;;;24.98;46.41
69173;BME280;56280;49.662;8.408;2023-08-30T11:07:45;99849.06;;;25.22;45.04
69173;BME280;56280;49.662;8.408;2023-08-30T11:10:13;99842.72;;;25.28;44.78
69173;BME280;56280;49.662;8.408;2023-08-30T11:12:45;99843.63;;;25.22;43.89
69173;BME280;56280;49.662;8.408;2023-08-30T11:15:12;99821.28;;;25.08;45.07
69173;BME280;56280;49.662;8.408;2023-08-30T11:17:44;99845.03;;;25.24;44.39
69173;BME280;56280;49.662;8.408;2023-08-30T11:20:12;99835.59;;;25.27;45.13
69173;BME280;56280;49.662;8.408;2023-08-30T11:22:43;99832.41;;;25.18;44.53
69173;BME280;56280;49.662;8.408;2023-08-30T11:25:10;99836.53;;;25.09;44.69
69173;BME280;56280;49.662;8.408;2023-08-30T11:27:38;99811.72;;;24.82;45.24
69173;BME280;56280;49.662;8.408;2023-08-30T11:30:05;99840.88;;;24.86;45.17
69173;BME280;56280;49.662;8.408;2023-08-30T11:32:42;99839.16;;;24.62;45.57
69173;BME280;56280;49.662;8.408;2023-08-30T11:35:12;99808.16;;;24.39;45.76
69173;BME280;56280;49.662;8.408;2023-08-30T11:37:40;99823.28;;;24.35;45.92
69173;BME280;56280;49.662;8.408;2023-08-30T11:40:10;99797.97;;;24.23;45.79
69173;BME280;56280;49.662;8.408;2023-08-30T11:42:36;99788.69;;;24.00;45.98
69173;BME280;56280;49.662;8.408;2023-08-30T11:45:02;99812.47;;;24.16;45.72
69173;BME280;56280;49.662;8.408;2023-08-30T11:47:29;99785.38;;;23.98;46.42
69173;BME280;56280;49.662;8.408;2023-08-30T11:49:56;99807.91;;;23.98;46.05
69173;BME280;56280;49.662;8.408;2023-08-30T11:52:28;99809.34;;;24.01;46.60
69173;BME280;56280;49.662;8.408;2023-08-30T11:54:56;99785.16;;;23.99;45.51
69173;BME280;56280;49.662;8.408;2023-08-30T11:57:22;99800.34;;;24.00;45.57
69173;BME280;56280;49.662;8.408;2023-08-30T11:59:48;99806.34;;;23.91;45.75
69173;BME280;56280;49.662;8.408;2023-08-30T12:02:16;99795.69;;;24.08;45.85
69173;BME280;56280;49.662;8.408;2023-08-30T12:04:46;99800.13;;;24.32;44.60
69173;BME280;56280;49.662;8.408;2023-08-30T12:07:25;99774.31;;;24.53;44.40
69173;BME280;56280;49.662;8.408;2023-08-30T12:09:51;99779.50;;;24.55;43.49
69173;BME280;56280;49.662;8.408;2023-08-30T12:12:25;99775.97;;;24.43;44.21
69173;BME280;56280;49.662;8.408;2023-08-30T12:14:57;99794.34;;;24.83;44.84
69173;BME280;56280;49.662;8.408;2023-08-30T12:17:23;99809.00;;;24.82;43.70
69173;BME280;56280;49.662;8.408;2023-08-30T12:19:58;99781.53;;;24.48;43.18
69173;BME280;56280;49.662;8.408;2023-08-30T12:22:35;99758.38;;;24.45;42.78
69173;BME280;56280;49.662;8.408;2023-08-30T12:25:01;99774.16;;;24.67;42.17
69173;BME280;56280;49.662;8.408;2023-08-30T12:27:27;99785.34;;;24.59;41.58
69173;BME280;56280;49.662;8.408;2023-08-30T12:29:53;99773.53;;;24.65;42.77
69173;BME280;56280;49.662;8.408;2023-08-30T12:32:26;99789.50;;;24.73;43.01
69173;BME280;56280;49.662;8.408;2023-08-30T12:34:52;99757.34;;;24.58;43.05
69173;BME280;56280;49.662;8.408;2023-08-30T12:37:21;99770.94;;;24.58;42.75
69173;BME280;56280;49.662;8.408;2023-08-30T12:39:46;99785.84;;;24.79;43.09
69173;BME280;56280;49.662;8.408;2023-08-30T12:42:16;99769.41;;;24.62;42.97
69173;BME280;56280;49.662;8.408;2023-08-30T12:44:42;99788.53;;;24.79;42.79
69173;BME280;56280;49.662;8.408;2023-08-30T12:47:10;99757.78;;;24.55;41.93
69173;BME280;56280;49.662;8.408;2023-08-30T12:49:39;99751.38;;;24.37;41.69
69173;BME280;56280;49.662;8.408;2023-08-30T12:52:05;99784.03;;;24.61;41.70
69173;BME280;56280;49.662;8.408;2023-08-30T12:54:30;99746.22;;;24.48;41.12
69173;BME280;56280;49.662;8.408;2023-08-30T12:56:56;99759.03;;;24.59;42.08
69173;BME280;56280;49.662;8.408;2023-08-30T12:59:23;99769.41;;;24.62;42.29
69173;BME280;56280;49.662;8.408;2023-08-30T13:01:49;99763.88;;;24.69;42.86
69173;BME280;56280;49.662;8.408;2023-08-30T13:04:15;99796.34;;;24.75;43.23